Time;durP1;ratioP1;P1;durP2;ratioP2;P2;SDS_P1;SDS_P2;PMS_P1;PMS_P2;Temp;Humidity;BMP_temperature;BMP_pressure;BME280_temperature;BME280_humidity;BME280_pressure;Samples;Min_cycle;Max_cycle;Signal;HPM_P1;HPM_P2
2023/02/01 00:01:56;;;;;;;10.30;7.68;;;20.90;99.90;;;;;;5058568;28;20025;-61
2023/02/01 00:04:22;;;;;;;10.50;7.55;;;20.90;99.90;;;;;;5074004;28;20024;-60
2023/02/01 00:06:47;;;;;;;13.25;8.20;;;20.80;99.90;;;;;;5058569;28;20033;-61
2023/02/01 00:09:14;;;;;;;10.85;7.53;;;20.80;99.90;;;;;;5058656;28;20025;-61
2023/02/01 00:11:40;;;;;;;10.68;7.22;;;20.90;99.90;;;;;;5058553;28;20032;-61
2023/02/01 00:14:06;;;;;;;10.25;7.38;;;20.90;99.90;;;;;;5058850;28;20017;-61
2023/02/01 00:16:31;;;;;;;9.63;7.45;;;20.80;99.90;;;;;;5058705;28;20048;-61
2023/02/01 00:19:03;;;;;;;10.93;7.70;;;20.80;99.90;;;;;;5058516;28;20029;-61
2023/02/01 00:21:30;;;;;;;11.35;7.88;;;20.80;99.90;;;;;;5058510;28;20017;-62
2023/02/01 00:23:56;;;;;;;11.40;7.25;;;20.80;99.90;;;;;;5058519;28;20083;-60
2023/02/01 00:26:35;;;;;;;10.13;6.85;;;20.80;99.90;;;;;;5058504;28;20025;-61
2023/02/01 00:29:03;;;;;;;8.98;6.65;;;20.70;99.90;;;;;;5058400;28;20465;-61
2023/02/01 00:31:29;;;;;;;8.48;6.82;;;20.70;99.90;;;;;;5058493;28;20049;-61
2023/02/01 00:33:55;;;;;;;11.77;7.88;;;20.70;99.90;;;;;;5058391;28;20068;-61
2023/02/01 00:36:21;;;;;;;9.23;7.18;;;20.70;99.90;;;;;;5073815;28;20036;-61
2023/02/01 00:38:48;;;;;;;10.85;7.50;;;20.70;99.90;;;;;;5058417;28;20017;-61
2023/02/01 00:41:19;;;;;;;9.43;7.10;;;20.70;99.90;;;;;;5058230;28;20055;-61
2023/02/01 00:43:46;;;;;;;11.48;7.47;;;20.60;99.90;;;;;;5058406;28;20013;-61
2023/02/01 00:46:13;;;;;;;10.57;7.63;;;20.60;99.90;;;;;;5058518;28;20033;-61
2023/02/01 00:48:40;;;;;;;9.23;6.70;;;20.70;99.90;;;;;;5058371;28;20422;-60
2023/02/01 00:51:12;;;;;;;9.30;6.97;;;20.60;99.90;;;;;;5058446;28;20041;-61
2023/02/01 00:53:38;;;;;;;9.63;6.70;;;20.60;99.90;;;;;;5058499;28;20017;-61
2023/02/01 00:56:05;;;;;;;10.82;7.22;;;20.60;99.90;;;;;;5058435;28;20384;-62
2023/02/01 00:58:31;;;;;;;8.73;7.03;;;20.60;99.90;;;;;;5058318;28;20028;-61
2023/02/01 01:01:08;;;;;;;10.55;7.60;;;20.60;99.90;;;;;;5056280;22;20666;-49
2023/02/01 01:03:37;;;;;;;8.90;6.27;;;20.60;99.90;;;;;;5036162;28;20029;-48
2023/02/01 01:06:06;;;;;;;10.10;6.88;;;20.50;99.90;;;;;;5035111;28;20040;-49
2023/02/01 01:08:33;;;;;;;11.52;7.35;;;20.50;99.90;;;;;;5035045;28;20503;-49
2023/02/01 01:10:59;;;;;;;11.27;7.50;;;20.50;99.90;;;;;;5035000;28;20040;-50
2023/02/01 01:13:25;;;;;;;10.05;7.43;;;20.50;99.90;;;;;;5034869;28;20030;-49
2023/02/01 01:15:50;;;;;;;9.93;6.40;;;20.50;99.90;;;;;;5033685;28;20036;-49
2023/02/01 01:18:16;;;;;;;9.82;6.88;;;20.40;99.90;;;;;;5034769;28;20083;-49
2023/02/01 01:20:42;;;;;;;11.63;7.55;;;20.40;99.90;;;;;;5034770;28;20083;-48
2023/02/01 01:23:08;;;;;;;11.68;7.60;;;20.40;99.90;;;;;;5034972;28;20025;-51
2023/02/01 01:25:39;;;;;;;10.88;7.57;;;20.40;99.90;;;;;;5034725;28;20018;-48
2023/02/01 01:28:06;;;;;;;11.00;7.45;;;20.40;99.90;;;;;;5034707;28;20512;-48
2023/02/01 01:30:33;;;;;;;9.45;7.10;;;20.40;99.90;;;;;;5034572;28;20477;-48
2023/02/01 01:32:59;;;;;;;8.63;6.85;;;20.40;99.90;;;;;;5034666;28;20032;-49
2023/02/01 01:35:25;;;;;;;10.38;7.45;;;20.40;99.90;;;;;;5034548;28;20025;-49
2023/02/01 01:37:50;;;;;;;10.63;7.05;;;20.30;99.90;;;;;;5034557;28;20022;-49
2023/02/01 01:40:16;;;;;;;10.00;6.55;;;20.30;99.90;;;;;;5034457;28;20420;-49
2023/02/01 01:42:43;;;;;;;9.00;6.15;;;20.30;99.90;;;;;;5034557;28;20037;-49
2023/02/01 01:45:21;;;;;;;9.10;6.82;;;20.30;99.90;;;;;;5034571;28;20052;-49
2023/02/01 01:47:54;;;;;;;11.10;6.97;;;20.30;99.90;;;;;;5034405;28;20029;-49
2023/02/01 01:50:27;;;;;;;10.50;6.90;;;20.30;99.90;;;;;;5034248;28;20029;-49
2023/02/01 01:52:55;;;;;;;9.45;6.90;;;20.20;99.90;;;;;;5034346;28;20168;-49
2023/02/01 01:55:24;;;;;;;8.85;6.20;;;20.20;99.90;;;;;;5034217;28;20571;-49
2023/02/01 01:58:02;;;;;;;8.65;6.45;;;20.20;99.90;;;;;;5034126;28;20026;-49
2023/02/01 02:00:27;;;;;;;9.48;5.93;;;20.20;99.90;;;;;;5034585;28;20088;-49
2023/02/01 02:02:59;;;;;;;10.20;6.72;;;20.20;99.90;;;;;;5034048;28;20404;-48
2023/02/01 02:05:25;;;;;;;8.27;6.07;;;20.20;99.90;;;;;;5034050;28;20072;-48
2023/02/01 02:07:56;;;;;;;8.18;6.20;;;20.20;99.90;;;;;;5033845;28;20097;-49
2023/02/01 02:10:59;;;;;;;10.40;6.65;;;20.10;99.90;;;;;;5033759;28;20138;-49
2023/02/01 02:13:08;;;;;;;8.65;6.70;;;20.10;99.90;;;;;;5033927;28;20061;-48
2023/02/01 02:15:41;;;;;;;9.15;6.50;;;20.10;99.90;;;;;;5032627;28;20075;-49
2023/02/01 02:18:28;;;;;;;10.50;6.30;;;20.10;99.90;;;;;;5033575;28;20120;-52
2023/02/01 02:21:23;;;;;;;9.53;6.13;;;20.10;99.90;;;;;;5032287;28;20029;-48
2023/02/01 02:24:10;;;;;;;9.63;6.28;;;20.10;99.90;;;;;;5033300;28;20026;-49
2023/02/01 02:26:39;;;;;;;7.32;4.93;;;20.00;99.90;;;;;;5034411;28;20033;-49
2023/02/01 02:29:23;;;;;;;8.93;6.30;;;20.00;99.90;;;;;;5030640;28;20152;-50
2023/02/01 02:31:51;;;;;;;12.68;6.35;;;20.00;99.90;;;;;;5033084;28;20044;-49
2023/02/01 02:34:30;;;;;;;9.00;5.63;;;20.00;99.90;;;;;;5033329;28;20033;-49
2023/02/01 02:36:59;;;;;;;9.20;6.47;;;20.00;99.90;;;;;;5033396;28;20033;-50
2023/02/01 02:40:09;;;;;;;8.88;5.82;;;20.00;99.90;;;;;;5033279;28;20033;-49
2023/02/01 02:48:38;;;;;;;9.25;6.32;;;19.90;99.90;;;;;;5030430;28;20021;-49
2023/02/01 03:05:15;;;;;;;10.18;5.85;;;19.90;99.90;;;;;;5043175;28;20091;-60
2023/02/01 03:07:44;;;;;;;16.83;6.23;;;19.90;99.90;;;;;;5046543;28;20024;-59
2023/02/01 03:10:36;;;;;;;9.45;5.78;;;19.80;99.90;;;;;;5052217;28;20029;-60
2023/02/01 03:13:15;;;;;;;7.53;5.90;;;19.80;99.90;;;;;;5015468;28;20538;-62
2023/02/01 03:16:01;;;;;;;10.48;5.43;;;19.80;99.90;;;;;;5052632;28;20021;-63
2023/02/01 03:18:51;;;;;;;7.65;5.80;;;19.80;99.90;;;;;;5011635;28;20029;-63
2023/02/01 03:21:21;;;;;;;12.93;5.47;;;19.80;99.90;;;;;;5034960;28;20419;-64
2023/02/01 03:23:49;;;;;;;9.68;5.78;;;19.80;99.90;;;;;;5034713;28;20025;-60
2023/02/01 03:26:19;;;;;;;8.60;6.00;;;19.80;99.90;;;;;;5052322;28;20025;-63
2023/02/01 03:28:57;;;;;;;10.02;5.40;;;19.70;99.90;;;;;;5052790;28;20033;-63
2023/02/01 03:31:23;;;;;;;10.32;5.05;;;19.70;99.90;;;;;;5052319;28;20068;-62
2023/02/01 03:33:50;;;;;;;7.63;5.60;;;19.70;99.90;;;;;;5052484;28;20021;-62
2023/02/01 03:36:30;;;;;;;9.35;5.00;;;19.70;99.90;;;;;;5052400;28;20107;-63
2023/02/01 03:39:05;;;;;;;9.45;6.13;;;19.70;99.90;;;;;;5052494;28;20370;-62
2023/02/01 03:41:40;;;;;;;8.23;5.28;;;19.70;99.90;;;;;;5052121;28;20029;-63
2023/02/01 03:44:29;;;;;;;6.93;5.07;;;19.70;99.90;;;;;;5052251;28;20107;-64
2023/02/01 03:47:14;;;;;;;9.50;5.45;;;19.60;99.90;;;;;;5052164;28;20025;-62
2023/02/01 03:50:05;;;;;;;6.63;4.70;;;19.60;99.90;;;;;;5052088;28;20089;-62
2023/02/01 03:52:35;;;;;;;7.07;4.90;;;19.60;99.90;;;;;;5051334;28;20047;-62
2023/02/01 03:55:02;;;;;;;7.97;5.13;;;19.60;99.90;;;;;;5052124;28;20037;-62
2023/02/01 03:57:34;;;;;;;10.63;4.90;;;19.60;99.90;;;;;;5052237;28;20354;-62
2023/02/01 04:00:14;;;;;;;7.53;5.20;;;19.60;99.90;;;;;;5037279;22;20520;-48
2023/02/01 04:02:40;;;;;;;6.53;4.70;;;19.50;99.90;;;;;;5012471;28;20066;-49
2023/02/01 04:05:06;;;;;;;6.82;4.72;;;19.60;99.90;;;;;;5012447;28;20056;-49
2023/02/01 04:07:32;;;;;;;6.72;4.68;;;19.50;99.90;;;;;;5012355;28;20475;-49
2023/02/01 04:09:58;;;;;;;7.00;4.65;;;19.50;99.90;;;;;;5012390;28;20061;-49
2023/02/01 04:12:24;;;;;;;5.85;4.30;;;19.50;99.90;;;;;;5012340;28;20362;-49
2023/02/01 04:14:49;;;;;;;8.07;4.65;;;19.50;99.90;;;;;;5012295;28;20033;-49
2023/02/01 04:17:15;;;;;;;6.25;4.60;;;19.50;99.90;;;;;;5012476;28;20072;-49
2023/02/01 04:19:41;;;;;;;6.70;4.55;;;19.50;99.90;;;;;;5012195;28;20026;-49
2023/02/01 04:22:07;;;;;;;8.82;4.85;;;19.50;99.90;;;;;;5012114;28;20030;-49
2023/02/01 04:24:32;;;;;;;6.25;4.30;;;19.40;99.90;;;;;;5011022;28;20026;-49
2023/02/01 04:26:58;;;;;;;5.93;3.90;;;19.50;99.90;;;;;;5012276;28;20026;-49
2023/02/01 04:29:24;;;;;;;5.72;4.10;;;19.40;99.90;;;;;;5012174;28;20450;-50
2023/02/01 04:31:50;;;;;;;8.40;3.90;;;19.50;99.90;;;;;;5012228;28;20053;-49
2023/02/01 04:34:16;;;;;;;6.28;4.15;;;19.40;99.90;;;;;;5012280;28;20091;-49
2023/02/01 04:36:41;;;;;;;5.15;3.80;;;19.40;99.90;;;;;;5012124;28;20433;-49
2023/02/01 04:39:09;;;;;;;6.45;4.00;;;19.40;99.90;;;;;;5013775;28;20454;-49
2023/02/01 04:41:35;;;;;;;7.60;3.85;;;19.40;99.90;;;;;;5015926;28;20034;-49
2023/02/01 04:44:01;;;;;;;5.72;3.88;;;19.40;99.90;;;;;;5015691;28;20026;-49
2023/02/01 04:46:27;;;;;;;5.75;3.72;;;19.40;99.90;;;;;;5015716;28;20041;-49
2023/02/01 04:48:53;;;;;;;4.75;3.42;;;19.40;99.90;;;;;;5015465;28;20026;-49
2023/02/01 04:51:19;;;;;;;5.40;3.63;;;19.40;99.90;;;;;;5015755;28;20065;-49
2023/02/01 04:53:45;;;;;;;4.47;3.53;;;19.30;99.90;;;;;;5015632;28;20053;-49
2023/02/01 04:56:11;;;;;;;4.82;3.40;;;19.30;99.90;;;;;;5015452;28;20049;-49
2023/02/01 04:58:37;;;;;;;5.85;3.70;;;19.30;99.90;;;;;;5015487;28;20434;-49
2023/02/01 05:01:04;;;;;;;5.25;3.28;;;19.30;99.90;;;;;;5041312;23;20049;-62
2023/02/01 05:03:31;;;;;;;;;;;19.30;99.90;;;;;;5035597;28;20029;-63
2023/02/01 05:05:57;;;;;;;3.55;3.05;;;19.30;99.90;;;;;;5035209;28;20280;-65
2023/02/01 05:08:25;;;;;;;4.43;3.03;;;19.30;99.90;;;;;;5035097;28;20026;-61
2023/02/01 05:10:50;;;;;;;5.40;3.65;;;19.30;99.90;;;;;;5035100;28;20041;-61
2023/02/01 05:16:00;;;;;;;4.63;2.88;;;19.20;99.90;;;;;;5034960;28;20384;-62
2023/02/01 05:18:26;;;;;;;4.82;3.65;;;19.20;99.90;;;;;;5034887;28;20085;-62
2023/02/01 05:20:52;;;;;;;4.38;3.20;;;19.20;99.90;;;;;;5034999;28;20385;-62
2023/02/01 05:23:18;;;;;;;4.70;2.80;;;19.20;99.90;;;;;;5035025;28;20389;-62
2023/02/01 05:25:43;;;;;;;4.68;3.45;;;19.20;99.90;;;;;;5034806;28;20052;-62
2023/02/01 05:28:09;;;;;;;5.32;3.45;;;19.20;99.90;;;;;;5033509;28;20435;-62
2023/02/01 05:30:35;;;;;;;6.07;3.35;;;19.20;99.90;;;;;;5034573;28;20481;-63
2023/02/01 05:33:01;;;;;;;4.18;3.03;;;19.20;99.90;;;;;;5034508;28;20017;-61
2023/02/01 05:35:27;;;;;;;5.00;3.17;;;19.20;99.90;;;;;;5034388;28;20028;-58
2023/02/01 05:37:53;;;;;;;5.15;2.97;;;19.20;99.90;;;;;;5034814;28;20018;-62
2023/02/01 05:40:19;;;;;;;3.97;2.70;;;19.10;99.90;;;;;;5034744;28;20096;-58
2023/02/01 05:42:45;;;;;;;4.13;2.85;;;19.10;99.90;;;;;;5034520;28;20091;-59
2023/02/01 05:45:11;;;;;;;4.72;3.13;;;19.10;99.90;;;;;;5034452;28;20025;-59
2023/02/01 05:47:36;;;;;;;4.95;3.13;;;19.10;99.90;;;;;;5034423;28;20029;-60
2023/02/01 05:50:03;;;;;;;4.47;3.33;;;19.10;99.90;;;;;;5034026;28;20041;-59
2023/02/01 05:52:29;;;;;;;3.55;2.53;;;19.10;99.90;;;;;;5034330;28;20029;-60
2023/02/01 05:54:55;;;;;;;4.03;2.45;;;19.10;99.90;;;;;;5032929;28;20029;-60
2023/02/01 05:57:21;;;;;;;3.92;2.95;;;19.10;99.90;;;;;;5034378;28;20028;-61
2023/02/01 05:59:48;;;;;;;4.78;3.13;;;19.10;99.90;;;;;;5038309;28;20512;-60
2023/02/01 06:02:17;;;;;;;5.05;3.20;;;19.10;99.90;;;;;;5053981;28;20017;-59
2023/02/01 06:04:42;;;;;;;5.60;2.90;;;19.10;99.90;;;;;;5053766;28;20501;-60
2023/02/01 06:07:10;;;;;;;6.75;3.00;;;19.10;99.90;;;;;;5053822;28;20057;-60
2023/02/01 06:09:36;;;;;;;5.20;2.95;;;19.00;99.90;;;;;;5053817;28;20484;-60
2023/02/01 06:12:05;;;;;;;4.88;2.90;;;19.10;99.90;;;;;;5053930;28;20033;-59
2023/02/01 06:14:30;;;;;;;6.88;3.25;;;19.00;99.90;;;;;;5053741;28;20491;-60
2023/02/01 06:16:56;;;;;;;7.63;2.95;;;19.00;99.90;;;;;;5053649;28;20060;-59
2023/02/01 06:19:23;;;;;;;4.65;2.95;;;19.00;99.90;;;;;;5053975;28;20021;-56
2023/02/01 06:21:48;;;;;;;6.85;2.75;;;19.00;99.90;;;;;;5053814;28;20029;-57
2023/02/01 06:24:14;;;;;;;6.07;2.80;;;19.00;99.90;;;;;;5053583;28;20032;-57
2023/02/01 06:26:40;;;;;;;5.47;2.70;;;19.00;99.90;;;;;;5053354;28;20025;-60
2023/02/01 06:29:12;;;;;;;4.88;2.63;;;19.00;99.90;;;;;;5053852;28;20028;-60
2023/02/01 06:31:38;;;;;;;5.50;2.80;;;18.90;99.90;;;;;;5053269;28;20385;-61
2023/02/01 06:34:04;;;;;;;4.65;2.63;;;18.90;99.90;;;;;;5035348;28;20021;-61
2023/02/01 06:36:30;;;;;;;5.05;2.67;;;18.90;99.90;;;;;;5053356;28;20028;-61
2023/02/01 06:38:56;;;;;;;6.50;2.60;;;18.90;99.90;;;;;;5053546;28;20021;-59
2023/02/01 06:41:23;;;;;;;4.13;2.70;;;18.90;99.90;;;;;;5053522;28;20023;-58
2023/02/01 06:43:49;;;;;;;5.22;2.40;;;18.90;99.90;;;;;;5035228;28;20031;-63
2023/02/01 06:46:15;;;;;;;5.18;2.80;;;18.90;99.90;;;;;;5053108;28;20025;-62
2023/02/01 06:48:41;;;;;;;4.82;2.47;;;18.90;99.90;;;;;;5053113;28;20024;-63
2023/02/01 06:51:23;;;;;;;5.50;2.35;;;18.90;99.90;;;;;;5052814;28;20062;-63
2023/02/01 06:53:49;;;;;;;5.28;3.10;;;18.80;99.90;;;;;;5052909;28;20040;-63
2023/02/01 06:56:15;;;;;;;4.43;2.60;;;18.90;99.90;;;;;;5052808;28;20043;-63
2023/02/01 06:58:41;;;;;;;5.72;3.17;;;18.80;99.90;;;;;;5052957;28;20021;-62
2023/02/01 07:01:09;;;;;;;6.13;2.50;;;18.80;99.90;;;;;;5051911;28;20041;-63
2023/02/01 07:03:35;;;;;;;4.50;2.40;;;18.80;99.90;;;;;;5052747;28;20112;-63
2023/02/01 07:06:01;;;;;;;4.70;2.60;;;18.80;99.90;;;;;;5052714;28;20024;-63
2023/02/01 07:08:28;;;;;;;4.15;2.50;;;18.80;99.90;;;;;;5052922;28;20025;-62
2023/02/01 07:10:54;;;;;;;6.55;2.50;;;18.80;99.90;;;;;;5052794;28;20079;-62
2023/02/01 07:13:19;;;;;;;5.10;2.92;;;18.80;99.90;;;;;;5052744;28;20071;-62
2023/02/01 07:15:48;;;;;;;4.03;2.72;;;18.70;99.90;;;;;;5052427;28;20444;-64
2023/02/01 07:18:16;;;;;;;6.00;3.17;;;18.80;99.90;;;;;;5034700;28;20029;-62
2023/02/01 07:20:42;;;;;;;4.57;2.78;;;18.80;99.90;;;;;;5052579;28;20039;-63
2023/02/01 07:23:10;;;;;;;7.20;2.95;;;18.80;99.90;;;;;;5052488;28;20021;-62
2023/02/01 07:25:36;;;;;;;5.57;2.63;;;18.70;99.90;;;;;;5034652;28;20028;-62
2023/02/01 07:28:02;;;;;;;4.18;2.65;;;18.70;99.90;;;;;;5052460;28;20111;-64
2023/02/01 07:30:28;;;;;;;5.00;2.90;;;18.70;99.90;;;;;;5052366;28;20104;-59
2023/02/01 07:32:54;;;;;;;5.50;3.13;;;18.70;99.90;;;;;;5052295;28;20104;-63
2023/02/01 07:35:19;;;;;;;4.90;2.90;;;18.70;99.90;;;;;;5052319;28;20025;-64
2023/02/01 07:37:45;;;;;;;4.05;2.35;;;18.70;99.90;;;;;;5052069;28;20075;-63
2023/02/01 07:40:11;;;;;;;5.53;2.90;;;18.70;99.90;;;;;;5052249;28;20025;-64
2023/02/01 07:42:37;;;;;;;5.80;2.60;;;18.70;99.90;;;;;;5052261;28;20055;-65
2023/02/01 07:45:03;;;;;;;7.00;2.83;;;18.70;99.90;;;;;;5052200;28;20108;-64
2023/02/01 07:47:29;;;;;;;5.88;2.90;;;18.70;99.90;;;;;;5052403;28;20033;-65
2023/02/01 07:49:55;;;;;;;5.97;2.70;;;18.70;99.90;;;;;;5034492;28;20032;-67
2023/02/01 07:52:21;;;;;;;5.60;3.00;;;18.70;99.90;;;;;;5052101;28;20025;-65
2023/02/01 07:54:47;;;;;;;5.55;2.97;;;18.70;99.90;;;;;;5052120;28;20025;-62
2023/02/01 07:57:13;;;;;;;4.95;2.67;;;18.70;99.90;;;;;;5052186;28;20033;-62
2023/02/01 08:01:19;;;;;;;6.13;2.72;;;18.80;99.90;;;;;;5051963;28;20051;-59
2023/02/01 08:02:27;;;;;;;3.78;2.22;;;18.70;99.90;;;;;;5052200;28;20037;-60
2023/02/01 08:04:53;;;;;;;4.57;2.53;;;18.80;99.90;;;;;;5051906;28;20036;-60
2023/02/01 08:07:18;;;;;;;4.43;3.00;;;18.80;99.90;;;;;;5051952;28;20381;-61
2023/02/01 08:09:44;;;;;;;5.70;2.25;;;18.80;99.90;;;;;;5052122;28;20041;-61
2023/02/01 08:12:10;;;;;;;5.55;2.80;;;18.80;99.90;;;;;;5034385;28;20032;-61
2023/02/01 08:14:36;;;;;;;6.88;2.80;;;18.80;99.90;;;;;;5055946;28;20029;-59
2023/02/01 08:17:01;;;;;;;4.90;2.90;;;18.90;99.90;;;;;;5055997;28;20025;-59
2023/02/01 08:19:27;;;;;;;4.60;2.38;;;18.90;99.90;;;;;;5056109;28;20033;-57
2023/02/01 08:21:53;;;;;;;7.05;2.80;;;18.90;99.90;;;;;;5055999;28;20067;-61
2023/02/01 08:24:19;;;;;;;6.68;3.00;;;18.90;99.90;;;;;;5055738;28;20025;-61
2023/02/01 08:26:44;;;;;;;5.82;3.13;;;18.90;99.90;;;;;;5055633;28;20675;-61
2023/02/01 08:29:12;;;;;;;4.88;3.00;;;19.00;99.90;;;;;;5055658;28;20029;-63
2023/02/01 08:31:40;;;;;;;4.00;2.72;;;18.90;99.90;;;;;;5055565;28;20028;-66
2023/02/01 08:34:08;;;;;;;5.10;2.63;;;19.00;99.90;;;;;;5055853;28;20114;-66
2023/02/01 08:36:33;;;;;;;;;;;19.00;99.90;;;;;;5056015;28;20024;-62
2023/02/01 08:38:59;;;;;;;5.53;3.10;;;19.10;99.90;;;;;;5055721;28;20280;-62
2023/02/01 08:41:29;;;;;;;4.97;3.17;;;19.10;99.90;;;;;;5055572;28;20025;-64
2023/02/01 08:43:56;;;;;;;3.63;2.70;;;19.00;99.90;;;;;;5055367;28;20029;-65
2023/02/01 08:46:23;;;;;;;3.58;2.08;;;19.10;99.90;;;;;;5055379;28;20377;-64
2023/02/01 08:48:49;;;;;;;4.70;2.50;;;19.10;99.90;;;;;;5055260;28;20029;-64
2023/02/01 08:51:18;;;;;;;5.57;3.03;;;19.10;99.90;;;;;;5055341;28;20040;-67
2023/02/01 08:53:44;;;;;;;4.53;3.47;;;19.10;99.90;;;;;;5055224;28;20021;-65
2023/02/01 08:56:12;;;;;;;5.60;3.05;;;19.10;99.90;;;;;;5037571;28;20029;-66
2023/02/01 08:58:38;;;;;;;5.20;3.65;;;19.20;99.90;;;;;;5055256;28;20433;-66
2023/02/01 09:01:06;;;;;;;3.55;2.95;;;19.20;99.90;;;;;;5054825;28;20052;-65
2023/02/01 09:03:32;;;;;;;;;;;19.20;99.90;;;;;;5037970;28;20146;-67
2023/02/01 09:06:06;;;;;;;4.85;3.00;;;19.20;99.90;;;;;;5070494;28;19936;-65
2023/02/01 09:08:33;;;;;;;4.68;3.10;;;19.30;99.90;;;;;;5055124;28;20477;-67
2023/02/01 09:11:01;;;;;;;5.43;3.50;;;19.30;99.90;;;;;;5036712;28;20036;-67
2023/02/01 09:13:27;;;;;;;7.90;3.38;;;19.30;99.90;;;;;;5054719;28;20028;-64
2023/02/01 09:15:53;;;;;;;5.70;3.60;;;19.30;99.90;;;;;;5054790;28;20021;-66
2023/02/01 09:18:19;;;;;;;6.63;3.33;;;19.30;99.90;;;;;;5054800;28;20048;-63
2023/02/01 09:20:44;;;;;;;5.18;3.67;;;19.30;99.90;;;;;;5054798;28;20035;-65
2023/02/01 09:23:11;;;;;;;6.70;3.22;;;19.40;99.90;;;;;;5054585;28;20021;-63
2023/02/01 09:25:39;;;;;;;7.30;3.30;;;19.40;99.90;;;;;;5053911;28;20021;-63
2023/02/01 09:28:06;;;;;;;6.22;3.85;;;19.40;99.90;;;;;;5054567;28;20122;-64
2023/02/01 09:30:33;;;;;;;7.65;3.80;;;19.40;99.90;;;;;;5054601;28;20062;-65
2023/02/01 09:32:59;;;;;;;6.28;3.95;;;19.40;99.90;;;;;;5036566;28;20500;-63
2023/02/01 09:35:25;;;;;;;7.13;4.15;;;19.50;99.90;;;;;;5054352;28;20112;-63
2023/02/01 09:37:53;;;;;;;6.10;3.70;;;19.50;99.90;;;;;;5054322;28;20017;-64
2023/02/01 09:40:19;;;;;;;4.90;3.35;;;19.50;99.90;;;;;;5054484;28;20473;-65
2023/02/01 09:43:10;;;;;;;5.38;3.95;;;19.50;99.90;;;;;;5054336;28;20028;-65
2023/02/01 09:45:56;;;;;;;4.90;3.63;;;19.50;99.90;;;;;;5054436;28;20028;-64
2023/02/01 09:48:31;;;;;;;5.30;3.70;;;19.60;99.90;;;;;;5054185;28;20392;-67
2023/02/01 09:50:59;;;;;;;5.90;4.10;;;19.60;99.90;;;;;;5054085;28;20037;-65
2023/02/01 09:53:31;;;;;;;5.07;3.80;;;19.70;99.90;;;;;;5054192;28;20075;-65
2023/02/01 09:56:06;;;;;;;6.35;4.40;;;19.70;99.90;;;;;;5054186;28;20041;-65
2023/02/01 09:58:44;;;;;;;4.93;3.42;;;19.70;99.90;;;;;;5054259;28;20022;-66
2023/02/01 10:01:24;;;;;;;6.30;3.65;;;19.80;99.90;;;;;;5053946;28;20037;-63
2023/02/01 10:03:56;;;;;;;7.15;3.63;;;19.80;99.90;;;;;;5036084;28;20442;-66
2023/02/01 10:06:37;;;;;;;5.13;3.85;;;19.80;99.90;;;;;;5036795;28;20041;-65
2023/02/01 10:09:30;;;;;;;4.85;3.50;;;19.80;99.90;;;;;;5054088;28;20116;-63
2023/02/01 10:12:00;;;;;;;6.57;4.10;;;19.90;99.90;;;;;;5035785;28;20033;-64
2023/02/01 10:14:41;;;;;;;7.75;3.72;;;19.90;99.90;;;;;;5053580;28;20052;-64
2023/02/01 10:17:29;;;;;;;5.22;3.78;;;19.90;99.90;;;;;;5053852;28;20027;-65
2023/02/01 10:19:57;;;;;;;;;;;20.00;99.90;;;;;;5053818;28;20061;-64
2023/02/01 10:22:45;;;;;;;5.28;3.42;;;20.10;99.90;;;;;;5053388;28;20011;-64
2023/02/01 10:25:21;;;;;;;5.22;3.92;;;20.10;99.90;;;;;;5053376;28;20029;-64
2023/02/01 10:27:47;;;;;;;7.00;3.77;;;20.20;99.90;;;;;;5035304;28;20411;-64
2023/02/01 10:30:19;;;;;;;6.22;3.92;;;20.20;99.90;;;;;;5053165;28;20029;-65
2023/02/01 10:32:45;;;;;;;7.85;3.75;;;20.30;99.90;;;;;;5053151;28;20533;-66
2023/02/01 10:35:18;;;;;;;6.70;4.38;;;20.30;99.90;;;;;;5053128;28;20382;-66
2023/02/01 10:37:46;;;;;;;7.68;4.60;;;20.40;99.90;;;;;;5052324;28;20017;-65
2023/02/01 10:40:17;;;;;;;6.55;3.75;;;20.40;99.90;;;;;;5052937;28;20017;-65
2023/02/01 10:42:43;;;;;;;4.75;3.38;;;20.50;99.90;;;;;;5052976;28;20028;-65
2023/02/01 10:45:21;;;;;;;8.68;4.13;;;20.50;99.90;;;;;;5052941;28;20112;-66
2023/02/01 10:47:49;;;;;;;4.18;2.92;;;20.60;99.90;;;;;;5052997;28;20029;-64
2023/02/01 10:50:29;;;;;;;5.45;3.35;;;20.60;99.90;;;;;;5052611;28;20033;-64
2023/02/01 10:53:04;;;;;;;5.60;3.40;;;20.70;99.90;;;;;;5052971;28;20017;-65
2023/02/01 10:55:45;;;;;;;6.20;3.35;;;20.70;99.90;;;;;;5052484;28;20029;-66
2023/02/01 10:58:28;;;;;;;5.80;3.53;;;20.80;99.90;;;;;;5033011;28;20021;-64
2023/02/01 11:00:58;;;;;;;5.53;3.42;;;20.80;99.90;;;;;;5048526;28;20053;-62
2023/02/01 11:03:44;;;;;;;11.73;4.70;;;20.80;99.90;;;;;;5051540;28;20078;-70
2023/02/01 11:06:32;;;;;;;8.60;3.30;;;20.90;99.90;;;;;;5049663;28;20571;-65
2023/02/01 11:09:16;;;;;;;8.18;3.40;;;20.90;99.90;;;;;;5050793;28;20031;-63
2023/02/01 11:11:48;;;;;;;43.67;3.95;;;21.00;99.90;;;;;;5051587;28;20036;-66
2023/02/01 11:14:16;;;;;;;11.32;3.47;;;21.10;99.90;;;;;;5051998;28;20052;-66
2023/02/01 11:16:48;;;;;;;5.95;3.60;;;21.10;99.90;;;;;;5051940;28;20017;-65
2023/02/01 11:19:15;;;;;;;5.60;3.78;;;21.10;99.90;;;;;;5051897;28;21486;-62
2023/02/01 11:21:44;;;;;;;14.35;4.07;;;21.20;99.90;;;;;;5029072;28;20045;-64
2023/02/01 11:24:23;;;;;;;6.57;3.10;;;21.20;99.90;;;;;;5049527;28;20035;-63
2023/02/01 11:26:49;;;;;;;7.00;3.10;;;21.20;99.90;;;;;;5049578;28;20384;-65
2023/02/01 11:29:21;;;;;;;5.25;3.47;;;21.20;99.90;;;;;;5050129;28;20187;-65
2023/02/01 11:31:49;;;;;;;4.03;3.20;;;21.30;99.90;;;;;;5031802;28;20110;-65
2023/02/01 11:34:18;;;;;;;7.15;3.97;;;21.30;99.90;;;;;;5049787;28;20025;-66
2023/02/01 11:36:46;;;;;;;6.32;3.83;;;21.30;99.90;;;;;;5049755;28;20465;-64
2023/02/01 11:39:12;;;;;;;5.70;3.15;;;21.40;99.90;;;;;;5049783;28;20029;-66
2023/02/01 11:41:44;;;;;;;4.65;2.92;;;21.40;99.90;;;;;;5050284;28;20029;-66
2023/02/01 11:44:22;;;;;;;42.80;4.13;;;21.50;99.90;;;;;;5047370;28;20028;-67
2023/02/01 11:46:48;;;;;;;5.97;3.70;;;21.50;99.90;;;;;;5049371;28;20021;-65
2023/02/01 11:49:25;;;;;;;6.35;3.25;;;21.60;99.90;;;;;;5048867;28;20029;-63
2023/02/01 11:52:18;;;;;;;7.50;3.15;;;21.60;99.90;;;;;;5048543;28;20037;-61
2023/02/01 11:54:54;;;;;;;5.13;3.22;;;21.60;99.90;;;;;;5049413;28;20548;-68
2023/02/01 11:57:36;;;;;;;4.97;3.47;;;21.70;99.90;;;;;;5046167;28;20044;-63
2023/02/01 12:00:29;;;;;;;6.65;3.75;;;21.70;99.90;;;;;;5049000;28;20037;-63
2023/02/01 12:03:36;;;;;;;11.80;4.03;;;21.70;99.90;;;;;;5030311;28;20460;-66
2023/02/01 12:06:05;;;;;;;16.73;3.58;;;21.70;99.90;;;;;;5021448;28;20485;-63
2023/02/01 12:08:52;;;;;;;6.43;3.30;;;21.80;99.90;;;;;;5049521;28;20070;-65
2023/02/01 12:11:30;;;;;;;10.75;4.00;;;21.80;99.90;;;;;;5047133;28;20059;-64
2023/02/01 12:14:20;;;;;;;7.05;3.45;;;21.80;99.90;;;;;;5049866;28;20060;-64
2023/02/01 12:16:57;;;;;;;9.32;4.22;;;21.90;99.90;;;;;;5049313;28;20135;-64
2023/02/01 12:19:47;;;;;;;5.90;3.55;;;21.90;99.90;;;;;;5049451;28;20025;-67
2023/02/01 12:22:38;;;;;;;5.30;3.75;;;21.90;99.90;;;;;;5049763;28;20075;-65
2023/02/01 12:25:25;;;;;;;6.65;3.55;;;21.90;99.90;;;;;;5049481;28;20056;-64
2023/02/01 12:27:57;;;;;;;5.07;3.47;;;22.00;99.90;;;;;;5031691;28;20033;-65
2023/02/01 12:30:46;;;;;;;6.28;3.72;;;22.00;99.90;;;;;;5049712;28;20158;-66
2023/02/01 12:33:30;;;;;;;5.63;3.22;;;22.00;99.90;;;;;;5047987;28;20071;-67
2023/02/01 12:36:25;;;;;;;4.90;2.92;;;22.00;99.90;;;;;;5049195;28;20540;-64
2023/02/01 12:38:56;;;;;;;4.03;3.00;;;22.10;99.90;;;;;;5049182;28;20075;-64
2023/02/01 12:41:31;;;;;;;7.22;3.53;;;22.10;99.90;;;;;;5049243;28;20029;-64
2023/02/01 12:44:12;;;;;;;5.35;3.38;;;22.10;99.90;;;;;;5049258;28;20032;-64
2023/02/01 12:46:46;;;;;;;6.43;4.07;;;22.10;99.90;;;;;;5048587;28;20496;-65
2023/02/01 12:49:35;;;;;;;6.07;3.65;;;22.20;99.90;;;;;;5049710;28;20043;-67
2023/02/01 12:52:06;;;;;;;11.75;4.05;;;22.20;99.90;;;;;;5034431;28;20045;-58
2023/02/01 12:54:38;;;;;;;8.07;4.32;;;22.20;99.90;;;;;;5049005;28;20025;-59
2023/02/01 12:57:10;;;;;;;7.70;3.90;;;22.20;99.90;;;;;;5048350;28;20037;-66
2023/02/01 12:59:59;;;;;;;7.43;4.25;;;22.30;99.90;;;;;;5049817;28;20060;-63
2023/02/01 13:02:50;;;;;;;8.85;4.13;;;22.30;99.90;;;;;;5052524;28;20048;-66
2023/02/01 13:05:41;;;;;;;10.85;4.63;;;22.30;99.90;;;;;;5053172;28;20036;-65
2023/02/01 13:08:12;;;;;;;7.32;4.60;;;22.30;99.90;;;;;;5032842;28;20113;-64
2023/02/01 13:10:50;;;;;;;13.13;5.90;;;22.40;99.90;;;;;;5052460;28;20067;-68
2023/02/01 13:13:31;;;;;;;8.30;5.00;;;22.40;99.90;;;;;;5049848;28;20025;-66
2023/02/01 13:16:16;;;;;;;11.07;6.20;;;22.40;99.90;;;;;;5051904;28;20025;-65
2023/02/01 13:18:47;;;;;;;11.00;5.72;;;22.40;99.90;;;;;;5051216;28;20094;-66
2023/02/01 13:21:18;;;;;;;10.52;7.25;;;22.40;99.90;;;;;;5033968;28;20051;-65
2023/02/01 13:23:48;;;;;;;55.13;20.05;;;22.50;99.90;;;;;;5049915;28;20507;-66
2023/02/01 13:26:14;;;;;;;41.53;19.00;;;22.50;99.90;;;;;;5049212;28;20032;-68
2023/02/01 13:28:45;;;;;;;52.05;20.45;;;22.50;99.90;;;;;;5035171;28;20029;-66